sensor_id;sensor_type;location;lat;lon;timestamp;P1;durP1;ratioP1;P2;durP2;ratioP2
8675;SDS011;4375;52.486;13.424;2023-03-01T00:01:10;40.42;;;16.27;;
8675;SDS011;4375;52.486;13.424;2023-03-01T00:03:40;38.83;;;14.75;;
8675;SDS011;4375;52.486;13.424;2023-03-01T00:06:07;37.35;;;13.68;;
8675;SDS011;4375;52.486;13.424;2023-03-01T00:08:33;33.50;;;14.88;;
8675;SDS011;4375;52.486;13.424;2023-03-01T00:11:01;32.88;;;13.40;;
8675;SDS011;4375;52.486;13.424;2023-03-01T00:13:31;39.35;;;14.50;;
8675;SDS011;4375;52.486;13.424;2023-03-01T00:15:57;37.15;;;14.30;;
8675;SDS011;4375;52.486;13.424;2023-03-01T00:18:23;34.40;;;13.83;;
8675;SDS011;4375;52.486;13.424;2023-03-01T00:20:53;31.73;;;13.20;;
8675;SDS011;4375;52.486;13.424;2023-03-01T00:23:19;33.17;;;15.32;;
8675;SDS011;4375;52.486;13.424;2023-03-01T00:25:45;41.35;;;14.23;;
8675;SDS011;4375;52.486;13.424;2023-03-01T00:28:11;35.63;;;13.73;;
8675;SDS011;4375;52.486;13.424;2023-03-01T00:30:37;35.30;;;14.10;;
8675;SDS011;4375;52.486;13.424;2023-03-01T00:33:03;37.43;;;15.10;;
8675;SDS011;4375;52.486;13.424;2023-03-01T00:35:28;40.43;;;15.63;;
8675;SDS011;4375;52.486;13.424;2023-03-01T00:37:54;40.60;;;15.27;;
8675;SDS011;4375;52.486;13.424;2023-03-01T00:40:23;36.53;;;16.20;;
8675;SDS011;4375;52.486;13.424;2023-03-01T00:42:51;44.28;;;15.23;;
8675;SDS011;4375;52.486;13.424;2023-03-01T00:45:17;32.97;;;13.63;;
8675;SDS011;4375;52.486;13.424;2023-03-01T00:47:46;36.87;;;15.50;;
8675;SDS011;4375;52.486;13.424;2023-03-01T00:50:12;42.42;;;15.82;;
8675;SDS011;4375;52.486;13.424;2023-03-01T00:52:38;41.03;;;15.40;;
8675;SDS011;4375;52.486;13.424;2023-03-01T00:55:03;36.63;;;15.30;;
8675;SDS011;4375;52.486;13.424;2023-03-01T00:57:30;37.40;;;14.98;;
8675;SDS011;4375;52.486;13.424;2023-03-01T00:59:56;33.05;;;14.07;;
8675;SDS011;4375;52.486;13.424;2023-03-01T01:02:22;36.13;;;14.23;;
8675;SDS011;4375;52.486;13.424;2023-03-01T01:04:48;39.80;;;15.18;;
8675;SDS011;4375;52.486;13.424;2023-03-01T01:07:14;37.60;;;14.50;;
8675;SDS011;4375;52.486;13.424;2023-03-01T01:09:40;37.72;;;18.05;;
8675;SDS011;4375;52.486;13.424;2023-03-01T01:12:06;36.78;;;13.82;;
8675;SDS011;4375;52.486;13.424;2023-03-01T01:14:32;39.10;;;14.30;;
8675;SDS011;4375;52.486;13.424;2023-03-01T01:16:58;44.25;;;15.60;;
8675;SDS011;4375;52.486;13.424;2023-03-01T01:19:24;30.70;;;13.33;;
8675;SDS011;4375;52.486;13.424;2023-03-01T01:21:50;35.00;;;15.05;;
8675;SDS011;4375;52.486;13.424;2023-03-01T01:24:16;34.90;;;13.38;;
8675;SDS011;4375;52.486;13.424;2023-03-01T01:26:43;38.67;;;14.73;;
8675;SDS011;4375;52.486;13.424;2023-03-01T01:29:09;40.55;;;14.82;;
8675;SDS011;4375;52.486;13.424;2023-03-01T01:31:35;37.10;;;16.55;;
8675;SDS011;4375;52.486;13.424;2023-03-01T01:34:03;35.15;;;15.13;;
8675;SDS011;4375;52.486;13.424;2023-03-01T01:36:30;38.70;;;14.57;;
8675;SDS011;4375;52.486;13.424;2023-03-01T01:38:57;37.13;;;15.32;;
8675;SDS011;4375;52.486;13.424;2023-03-01T01:41:24;39.75;;;16.05;;
8675;SDS011;4375;52.486;13.424;2023-03-01T01:52:08;37.65;;;14.68;;
8675;SDS011;4375;52.486;13.424;2023-03-01T01:54:49;34.25;;;13.13;;
8675;SDS011;4375;52.486;13.424;2023-03-01T01:57:23;32.03;;;11.50;;
8675;SDS011;4375;52.486;13.424;2023-03-01T01:59:54;36.15;;;13.10;;
8675;SDS011;4375;52.486;13.424;2023-03-01T02:02:24;32.97;;;13.27;;
8675;SDS011;4375;52.486;13.424;2023-03-01T02:04:53;34.90;;;14.45;;
8675;SDS011;4375;52.486;13.424;2023-03-01T02:07:28;34.42;;;12.63;;
8675;SDS011;4375;52.486;13.424;2023-03-01T02:09:55;31.58;;;12.95;;
8675;SDS011;4375;52.486;13.424;2023-03-01T02:12:21;32.17;;;12.40;;
8675;SDS011;4375;52.486;13.424;2023-03-01T02:14:49;35.17;;;13.00;;
8675;SDS011;4375;52.486;13.424;2023-03-01T02:17:15;33.53;;;12.73;;
8675;SDS011;4375;52.486;13.424;2023-03-01T02:19:58;30.98;;;12.07;;
8675;SDS011;4375;52.486;13.424;2023-03-01T02:22:32;33.75;;;12.65;;
8675;SDS011;4375;52.486;13.424;2023-03-01T02:30:37;31.05;;;12.43;;
8675;SDS011;4375;52.486;13.424;2023-03-01T02:33:23;32.03;;;13.18;;
8675;SDS011;4375;52.486;13.424;2023-03-01T02:35:50;40.38;;;13.23;;
8675;SDS011;4375;52.486;13.424;2023-03-01T02:38:17;31.75;;;12.35;;
8675;SDS011;4375;52.486;13.424;2023-03-01T02:40:42;35.43;;;13.83;;
8675;SDS011;4375;52.486;13.424;2023-03-01T02:43:09;29.55;;;11.77;;
8675;SDS011;4375;52.486;13.424;2023-03-01T02:45:37;35.42;;;14.60;;
8675;SDS011;4375;52.486;13.424;2023-03-01T02:48:07;32.05;;;12.15;;
8675;SDS011;4375;52.486;13.424;2023-03-01T02:50:45;29.50;;;11.83;;
8675;SDS011;4375;52.486;13.424;2023-03-01T02:53:50;35.25;;;13.25;;
8675;SDS011;4375;52.486;13.424;2023-03-01T02:56:42;40.60;;;12.70;;
8675;SDS011;4375;52.486;13.424;2023-03-01T02:59:09;32.25;;;12.90;;
8675;SDS011;4375;52.486;13.424;2023-03-01T03:01:35;34.97;;;13.70;;
8675;SDS011;4375;52.486;13.424;2023-03-01T03:04:07;35.50;;;13.55;;
8675;SDS011;4375;52.486;13.424;2023-03-01T03:06:35;32.55;;;13.57;;
8675;SDS011;4375;52.486;13.424;2023-03-01T03:09:01;34.20;;;14.50;;
8675;SDS011;4375;52.486;13.424;2023-03-01T03:11:27;28.75;;;12.20;;
8675;SDS011;4375;52.486;13.424;2023-03-01T03:13:54;30.40;;;11.43;;
8675;SDS011;4375;52.486;13.424;2023-03-01T03:16:20;32.67;;;13.07;;
8675;SDS011;4375;52.486;13.424;2023-03-01T03:18:45;33.88;;;13.63;;
8675;SDS011;4375;52.486;13.424;2023-03-01T03:21:12;32.47;;;11.97;;
8675;SDS011;4375;52.486;13.424;2023-03-01T03:23:38;31.83;;;12.55;;
8675;SDS011;4375;52.486;13.424;2023-03-01T03:26:04;32.63;;;12.30;;
8675;SDS011;4375;52.486;13.424;2023-03-01T03:28:31;30.58;;;12.55;;
8675;SDS011;4375;52.486;13.424;2023-03-01T03:30:57;32.47;;;12.60;;
8675;SDS011;4375;52.486;13.424;2023-03-01T03:33:28;33.95;;;12.90;;
8675;SDS011;4375;52.486;13.424;2023-03-01T03:35:57;32.90;;;12.73;;
8675;SDS011;4375;52.486;13.424;2023-03-01T03:38:23;31.13;;;12.50;;
8675;SDS011;4375;52.486;13.424;2023-03-01T03:40:50;34.13;;;13.95;;
8675;SDS011;4375;52.486;13.424;2023-03-01T03:43:18;31.05;;;12.23;;
8675;SDS011;4375;52.486;13.424;2023-03-01T03:45:47;35.20;;;12.95;;
8675;SDS011;4375;52.486;13.424;2023-03-01T03:48:14;32.22;;;12.80;;
8675;SDS011;4375;52.486;13.424;2023-03-01T03:50:40;36.07;;;13.40;;
8675;SDS011;4375;52.486;13.424;2023-03-01T03:53:07;30.63;;;13.07;;
8675;SDS011;4375;52.486;13.424;2023-03-01T03:55:34;30.52;;;13.23;;
8675;SDS011;4375;52.486;13.424;2023-03-01T03:58:04;31.45;;;12.07;;
8675;SDS011;4375;52.486;13.424;2023-03-01T04:00:38;31.52;;;11.45;;
8675;SDS011;4375;52.486;13.424;2023-03-01T04:03:05;32.20;;;12.68;;
8675;SDS011;4375;52.486;13.424;2023-03-01T04:05:32;34.58;;;13.75;;
8675;SDS011;4375;52.486;13.424;2023-03-01T04:07:58;36.40;;;14.47;;
8675;SDS011;4375;52.486;13.424;2023-03-01T04:10:28;41.22;;;13.40;;
8675;SDS011;4375;52.486;13.424;2023-03-01T04:12:55;36.22;;;14.23;;
8675;SDS011;4375;52.486;13.424;2023-03-01T04:15:22;35.00;;;13.73;;
8675;SDS011;4375;52.486;13.424;2023-03-01T04:17:49;34.85;;;13.48;;
8675;SDS011;4375;52.486;13.424;2023-03-01T04:20:18;30.70;;;13.30;;
8675;SDS011;4375;52.486;13.424;2023-03-01T04:23:05;40.17;;;14.65;;
8675;SDS011;4375;52.486;13.424;2023-03-01T04:25:41;34.35;;;12.40;;
8675;SDS011;4375;52.486;13.424;2023-03-01T04:28:10;36.58;;;14.43;;
8675;SDS011;4375;52.486;13.424;2023-03-01T04:30:37;35.40;;;14.97;;
8675;SDS011;4375;52.486;13.424;2023-03-01T04:33:08;37.63;;;15.07;;
8675;SDS011;4375;52.486;13.424;2023-03-01T04:35:35;34.85;;;14.45;;
8675;SDS011;4375;52.486;13.424;2023-03-01T04:38:01;35.35;;;14.52;;
8675;SDS011;4375;52.486;13.424;2023-03-01T04:40:28;36.55;;;16.15;;
8675;SDS011;4375;52.486;13.424;2023-03-01T04:42:54;35.23;;;15.30;;
8675;SDS011;4375;52.486;13.424;2023-03-01T04:45:19;45.10;;;15.97;;
8675;SDS011;4375;52.486;13.424;2023-03-01T04:47:45;43.80;;;17.50;;
8675;SDS011;4375;52.486;13.424;2023-03-01T04:50:12;40.35;;;17.17;;
8675;SDS011;4375;52.486;13.424;2023-03-01T04:52:40;39.85;;;15.55;;
8675;SDS011;4375;52.486;13.424;2023-03-01T04:55:07;40.47;;;16.20;;
8675;SDS011;4375;52.486;13.424;2023-03-01T04:57:33;40.97;;;15.95;;
8675;SDS011;4375;52.486;13.424;2023-03-01T04:59:59;41.83;;;17.60;;
8675;SDS011;4375;52.486;13.424;2023-03-01T05:02:24;43.83;;;17.53;;
8675;SDS011;4375;52.486;13.424;2023-03-01T05:04:50;39.83;;;16.17;;
8675;SDS011;4375;52.486;13.424;2023-03-01T05:07:16;36.33;;;16.42;;
8675;SDS011;4375;52.486;13.424;2023-03-01T05:09:47;36.53;;;15.63;;
8675;SDS011;4375;52.486;13.424;2023-03-01T05:12:14;40.70;;;17.67;;
8675;SDS011;4375;52.486;13.424;2023-03-01T05:14:40;41.78;;;17.33;;
8675;SDS011;4375;52.486;13.424;2023-03-01T05:17:06;43.20;;;16.80;;
8675;SDS011;4375;52.486;13.424;2023-03-01T05:19:32;39.58;;;16.48;;
8675;SDS011;4375;52.486;13.424;2023-03-01T05:21:58;41.00;;;18.05;;
8675;SDS011;4375;52.486;13.424;2023-03-01T05:24:29;38.80;;;16.85;;
8675;SDS011;4375;52.486;13.424;2023-03-01T05:26:57;45.03;;;16.33;;
8675;SDS011;4375;52.486;13.424;2023-03-01T05:29:24;40.15;;;16.27;;
8675;SDS011;4375;52.486;13.424;2023-03-01T05:31:57;37.40;;;17.77;;
8675;SDS011;4375;52.486;13.424;2023-03-01T05:34:28;38.00;;;15.88;;
8675;SDS011;4375;52.486;13.424;2023-03-01T05:36:58;44.55;;;18.40;;
8675;SDS011;4375;52.486;13.424;2023-03-01T05:39:25;39.83;;;16.65;;
8675;SDS011;4375;52.486;13.424;2023-03-01T05:41:59;40.05;;;17.13;;
8675;SDS011;4375;52.486;13.424;2023-03-01T05:44:26;38.60;;;18.17;;
8675;SDS011;4375;52.486;13.424;2023-03-01T05:46:53;46.65;;;18.65;;
8675;SDS011;4375;52.486;13.424;2023-03-01T05:51:48;40.78;;;18.42;;
8675;SDS011;4375;52.486;13.424;2023-03-01T05:54:15;43.05;;;17.20;;
8675;SDS011;4375;52.486;13.424;2023-03-01T05:56:41;44.97;;;18.60;;
8675;SDS011;4375;52.486;13.424;2023-03-01T05:59:06;40.80;;;19.00;;
8675;SDS011;4375;52.486;13.424;2023-03-01T06:01:32;44.00;;;17.40;;
8675;SDS011;4375;52.486;13.424;2023-03-01T06:03:59;41.95;;;18.65;;
8675;SDS011;4375;52.486;13.424;2023-03-01T06:06:25;44.30;;;17.35;;
8675;SDS011;4375;52.486;13.424;2023-03-01T06:08:51;37.50;;;15.90;;
8675;SDS011;4375;52.486;13.424;2023-03-01T06:11:17;39.00;;;17.10;;
8675;SDS011;4375;52.486;13.424;2023-03-01T06:13:43;40.13;;;18.07;;
8675;SDS011;4375;52.486;13.424;2023-03-01T06:16:09;35.42;;;15.32;;
8675;SDS011;4375;52.486;13.424;2023-03-01T06:18:35;35.90;;;16.05;;
8675;SDS011;4375;52.486;13.424;2023-03-01T06:21:02;41.45;;;17.70;;
8675;SDS011;4375;52.486;13.424;2023-03-01T06:23:29;40.38;;;17.83;;
8675;SDS011;4375;52.486;13.424;2023-03-01T06:25:55;39.67;;;16.77;;
8675;SDS011;4375;52.486;13.424;2023-03-01T06:28:20;39.17;;;17.40;;
8675;SDS011;4375;52.486;13.424;2023-03-01T06:30:46;43.20;;;16.90;;
8675;SDS011;4375;52.486;13.424;2023-03-01T06:33:12;39.13;;;17.77;;
8675;SDS011;4375;52.486;13.424;2023-03-01T06:35:39;49.08;;;18.88;;
8675;SDS011;4375;52.486;13.424;2023-03-01T06:38:04;38.73;;;16.80;;
8675;SDS011;4375;52.486;13.424;2023-03-01T06:40:31;41.72;;;17.30;;
8675;SDS011;4375;52.486;13.424;2023-03-01T06:42:57;35.78;;;16.45;;
8675;SDS011;4375;52.486;13.424;2023-03-01T06:45:24;38.50;;;16.63;;
8675;SDS011;4375;52.486;13.424;2023-03-01T06:47:49;41.20;;;18.60;;
8675;SDS011;4375;52.486;13.424;2023-03-01T06:50:16;44.37;;;17.67;;
8675;SDS011;4375;52.486;13.424;2023-03-01T06:52:42;41.28;;;17.25;;
8675;SDS011;4375;52.486;13.424;2023-03-01T06:55:09;39.92;;;17.95;;
8675;SDS011;4375;52.486;13.424;2023-03-01T06:57:35;38.55;;;17.30;;
8675;SDS011;4375;52.486;13.424;2023-03-01T07:00:02;36.50;;;17.30;;
8675;SDS011;4375;52.486;13.424;2023-03-01T07:02:28;44.40;;;18.85;;
8675;SDS011;4375;52.486;13.424;2023-03-01T07:04:54;41.00;;;18.20;;
8675;SDS011;4375;52.486;13.424;2023-03-01T07:07:19;46.33;;;19.13;;
8675;SDS011;4375;52.486;13.424;2023-03-01T07:09:45;42.67;;;18.10;;
8675;SDS011;4375;52.486;13.424;2023-03-01T07:12:11;41.45;;;17.50;;
8675;SDS011;4375;52.486;13.424;2023-03-01T07:14:37;41.27;;;18.30;;
8675;SDS011;4375;52.486;13.424;2023-03-01T07:17:02;42.37;;;18.57;;
8675;SDS011;4375;52.486;13.424;2023-03-01T07:19:28;46.80;;;22.23;;
8675;SDS011;4375;52.486;13.424;2023-03-01T07:21:54;47.27;;;22.40;;
8675;SDS011;4375;52.486;13.424;2023-03-01T07:24:20;53.53;;;22.88;;
8675;SDS011;4375;52.486;13.424;2023-03-01T07:26:50;61.50;;;25.67;;
8675;SDS011;4375;52.486;13.424;2023-03-01T07:29:17;51.60;;;22.30;;
8675;SDS011;4375;52.486;13.424;2023-03-01T07:31:43;47.70;;;22.30;;
8675;SDS011;4375;52.486;13.424;2023-03-01T07:34:09;45.88;;;21.90;;
8675;SDS011;4375;52.486;13.424;2023-03-01T07:36:35;48.67;;;22.00;;
8675;SDS011;4375;52.486;13.424;2023-03-01T07:39:01;47.07;;;21.80;;
8675;SDS011;4375;52.486;13.424;2023-03-01T07:41:28;49.10;;;19.67;;
8675;SDS011;4375;52.486;13.424;2023-03-01T07:43:54;46.08;;;21.98;;
8675;SDS011;4375;52.486;13.424;2023-03-01T07:46:20;48.23;;;23.00;;
8675;SDS011;4375;52.486;13.424;2023-03-01T07:48:46;56.87;;;21.47;;
8675;SDS011;4375;52.486;13.424;2023-03-01T07:51:11;46.23;;;21.77;;
8675;SDS011;4375;52.486;13.424;2023-03-01T07:53:38;41.83;;;21.20;;
8675;SDS011;4375;52.486;13.424;2023-03-01T07:56:05;49.60;;;23.33;;
8675;SDS011;4375;52.486;13.424;2023-03-01T07:58:40;44.03;;;20.50;;
8675;SDS011;4375;52.486;13.424;2023-03-01T08:01:08;43.47;;;22.55;;
8675;SDS011;4375;52.486;13.424;2023-03-01T08:03:37;42.75;;;19.35;;
8675;SDS011;4375;52.486;13.424;2023-03-01T08:06:04;40.67;;;20.08;;
8675;SDS011;4375;52.486;13.424;2023-03-01T08:08:32;42.92;;;20.80;;
8675;SDS011;4375;52.486;13.424;2023-03-01T08:10:58;43.37;;;19.77;;
8675;SDS011;4375;52.486;13.424;2023-03-01T08:13:25;46.30;;;20.27;;
8675;SDS011;4375;52.486;13.424;2023-03-01T08:15:51;44.30;;;20.10;;
8675;SDS011;4375;52.486;13.424;2023-03-01T08:18:18;48.30;;;19.75;;
8675;SDS011;4375;52.486;13.424;2023-03-01T08:20:45;41.28;;;19.75;;
8675;SDS011;4375;52.486;13.424;2023-03-01T08:23:11;41.13;;;19.25;;
8675;SDS011;4375;52.486;13.424;2023-03-01T08:25:37;42.47;;;17.97;;
8675;SDS011;4375;52.486;13.424;2023-03-01T08:28:03;33.30;;;17.30;;
8675;SDS011;4375;52.486;13.424;2023-03-01T08:30:29;41.10;;;17.33;;
8675;SDS011;4375;52.486;13.424;2023-03-01T08:32:55;38.17;;;17.43;;
8675;SDS011;4375;52.486;13.424;2023-03-01T08:35:20;36.63;;;16.77;;
8675;SDS011;4375;52.486;13.424;2023-03-01T08:37:46;37.43;;;16.33;;
8675;SDS011;4375;52.486;13.424;2023-03-01T08:40:12;30.67;;;11.30;;
8675;SDS011;4375;52.486;13.424;2023-03-01T08:42:38;32.20;;;12.77;;
8675;SDS011;4375;52.486;13.424;2023-03-01T08:45:06;36.00;;;12.40;;
8675;SDS011;4375;52.486;13.424;2023-03-01T08:47:32;38.53;;;10.85;;
8675;SDS011;4375;52.486;13.424;2023-03-01T08:50:00;29.07;;;10.37;;
8675;SDS011;4375;52.486;13.424;2023-03-01T08:52:26;27.20;;;11.27;;
8675;SDS011;4375;52.486;13.424;2023-03-01T08:54:52;39.83;;;14.40;;
8675;SDS011;4375;52.486;13.424;2023-03-01T08:57:18;28.90;;;11.00;;
8675;SDS011;4375;52.486;13.424;2023-03-01T08:59:44;28.83;;;10.93;;
8675;SDS011;4375;52.486;13.424;2023-03-01T09:02:11;30.60;;;10.70;;
8675;SDS011;4375;52.486;13.424;2023-03-01T09:04:39;32.10;;;10.47;;
8675;SDS011;4375;52.486;13.424;2023-03-01T09:07:05;26.40;;;10.80;;
8675;SDS011;4375;52.486;13.424;2023-03-01T09:09:30;27.03;;;9.83;;
8675;SDS011;4375;52.486;13.424;2023-03-01T09:11:56;26.40;;;9.60;;
8675;SDS011;4375;52.486;13.424;2023-03-01T09:14:22;30.03;;;9.80;;
8675;SDS011;4375;52.486;13.424;2023-03-01T09:16:48;24.87;;;9.27;;
8675;SDS011;4375;52.486;13.424;2023-03-01T09:19:14;28.70;;;9.70;;
8675;SDS011;4375;52.486;13.424;2023-03-01T09:21:40;31.90;;;9.77;;
8675;SDS011;4375;52.486;13.424;2023-03-01T09:24:06;24.37;;;9.07;;
8675;SDS011;4375;52.486;13.424;2023-03-01T09:26:38;29.03;;;9.37;;
8675;SDS011;4375;52.486;13.424;2023-03-01T09:29:04;24.03;;;8.60;;
8675;SDS011;4375;52.486;13.424;2023-03-01T09:31:29;24.87;;;7.63;;
8675;SDS011;4375;52.486;13.424;2023-03-01T09:33:55;21.47;;;7.70;;
8675;SDS011;4375;52.486;13.424;2023-03-01T09:36:22;20.40;;;7.60;;
8675;SDS011;4375;52.486;13.424;2023-03-01T09:38:50;21.40;;;6.27;;
8675;SDS011;4375;52.486;13.424;2023-03-01T09:46:53;25.37;;;8.33;;
8675;SDS011;4375;52.486;13.424;2023-03-01T09:49:23;25.03;;;7.80;;
8675;SDS011;4375;52.486;13.424;2023-03-01T09:51:55;21.47;;;6.93;;
8675;SDS011;4375;52.486;13.424;2023-03-01T09:54:28;22.70;;;7.63;;
8675;SDS011;4375;52.486;13.424;2023-03-01T09:57:01;25.70;;;8.27;;
8675;SDS011;4375;52.486;13.424;2023-03-01T10:02:51;21.90;;;6.97;;
8675;SDS011;4375;52.486;13.424;2023-03-01T10:10:34;25.23;;;7.87;;
8675;SDS011;4375;52.486;13.424;2023-03-01T10:13:10;23.20;;;8.00;;
8675;SDS011;4375;52.486;13.424;2023-03-01T10:15:47;26.90;;;9.00;;
8675;SDS011;4375;52.486;13.424;2023-03-01T10:18:28;21.20;;;6.93;;
8675;SDS011;4375;52.486;13.424;2023-03-01T10:23:43;24.77;;;7.23;;
8675;SDS011;4375;52.486;13.424;2023-03-01T10:29:08;20.57;;;5.93;;
8675;SDS011;4375;52.486;13.424;2023-03-01T10:34:21;24.23;;;5.93;;
8675;SDS011;4375;52.486;13.424;2023-03-01T10:37:19;22.80;;;5.83;;
8675;SDS011;4375;52.486;13.424;2023-03-01T10:42:32;25.03;;;9.20;;
8675;SDS011;4375;52.486;13.424;2023-03-01T10:45:16;17.63;;;5.80;;
8675;SDS011;4375;52.486;13.424;2023-03-01T10:48:06;20.13;;;6.07;;
8675;SDS011;4375;52.486;13.424;2023-03-01T10:50:49;24.57;;;6.37;;
8675;SDS011;4375;52.486;13.424;2023-03-01T10:55:58;23.53;;;6.50;;
8675;SDS011;4375;52.486;13.424;2023-03-01T10:58:39;21.20;;;6.50;;
8675;SDS011;4375;52.486;13.424;2023-03-01T11:01:27;21.67;;;6.53;;
8675;SDS011;4375;52.486;13.424;2023-03-01T11:06:31;18.40;;;4.93;;
8675;SDS011;4375;52.486;13.424;2023-03-01T11:09:12;20.83;;;5.63;;
8675;SDS011;4375;52.486;13.424;2023-03-01T11:11:40;24.20;;;6.77;;
8675;SDS011;4375;52.486;13.424;2023-03-01T11:14:16;20.37;;;5.70;;
8675;SDS011;4375;52.486;13.424;2023-03-01T11:16:47;19.53;;;6.30;;
8675;SDS011;4375;52.486;13.424;2023-03-01T11:19:16;21.67;;;6.40;;
8675;SDS011;4375;52.486;13.424;2023-03-01T11:24:34;21.20;;;6.50;;
8675;SDS011;4375;52.486;13.424;2023-03-01T11:27:07;20.87;;;5.53;;
8675;SDS011;4375;52.486;13.424;2023-03-01T11:29:55;21.83;;;5.47;;
8675;SDS011;4375;52.486;13.424;2023-03-01T11:35:27;17.80;;;4.57;;
8675;SDS011;4375;52.486;13.424;2023-03-01T11:40:41;19.20;;;5.00;;
8675;SDS011;4375;52.486;13.424;2023-03-01T11:51:49;18.30;;;4.63;;
8675;SDS011;4375;52.486;13.424;2023-03-01T11:54:27;19.87;;;4.00;;
8675;SDS011;4375;52.486;13.424;2023-03-01T11:57:28;18.87;;;4.00;;
8675;SDS011;4375;52.486;13.424;2023-03-01T12:05:54;18.77;;;4.73;;
8675;SDS011;4375;52.486;13.424;2023-03-01T12:11:02;16.43;;;3.57;;
8675;SDS011;4375;52.486;13.424;2023-03-01T12:30:51;16.37;;;3.67;;
8675;SDS011;4375;52.486;13.424;2023-03-01T12:36:52;16.70;;;2.70;;
8675;SDS011;4375;52.486;13.424;2023-03-01T12:50:42;17.60;;;3.47;;
8675;SDS011;4375;52.486;13.424;2023-03-01T12:55:48;15.97;;;3.27;;
8675;SDS011;4375;52.486;13.424;2023-03-01T13:03:48;18.43;;;2.77;;
8675;SDS011;4375;52.486;13.424;2023-03-01T13:17:56;16.50;;;3.00;;
8675;SDS011;4375;52.486;13.424;2023-03-01T13:32:00;20.50;;;3.80;;
8675;SDS011;4375;52.486;13.424;2023-03-01T13:33:55;20.40;;;4.33;;
8675;SDS011;4375;52.486;13.424;2023-03-01T13:44:33;22.10;;;3.87;;
8675;SDS011;4375;52.486;13.424;2023-03-01T13:49:56;15.50;;;3.20;;
8675;SDS011;4375;52.486;13.424;2023-03-01T13:55:03;16.50;;;2.80;;
8675;SDS011;4375;52.486;13.424;2023-03-01T13:57:39;17.77;;;3.67;;
8675;SDS011;4375;52.486;13.424;2023-03-01T14:03:04;20.43;;;3.37;;
8675;SDS011;4375;52.486;13.424;2023-03-01T14:05:36;20.50;;;3.17;;
8675;SDS011;4375;52.486;13.424;2023-03-01T14:08:05;15.73;;;3.50;;
8675;SDS011;4375;52.486;13.424;2023-03-01T14:13:47;16.90;;;3.50;;
8675;SDS011;4375;52.486;13.424;2023-03-01T14:16:23;17.40;;;3.50;;
8675;SDS011;4375;52.486;13.424;2023-03-01T14:19:02;24.03;;;3.97;;
8675;SDS011;4375;52.486;13.424;2023-03-01T14:21:33;18.67;;;3.57;;
8675;SDS011;4375;52.486;13.424;2023-03-01T14:24:00;15.23;;;2.97;;
8675;SDS011;4375;52.486;13.424;2023-03-01T14:26:25;16.53;;;3.33;;
8675;SDS011;4375;52.486;13.424;2023-03-01T14:28:51;15.60;;;3.40;;
8675;SDS011;4375;52.486;13.424;2023-03-01T14:34:03;24.73;;;6.97;;
8675;SDS011;4375;52.486;13.424;2023-03-01T14:36:30;18.00;;;3.90;;
8675;SDS011;4375;52.486;13.424;2023-03-01T14:38:57;16.77;;;3.87;;
8675;SDS011;4375;52.486;13.424;2023-03-01T14:41:34;16.53;;;3.40;;
8675;SDS011;4375;52.486;13.424;2023-03-01T14:44:02;16.50;;;2.90;;
8675;SDS011;4375;52.486;13.424;2023-03-01T14:49:20;20.83;;;3.43;;
8675;SDS011;4375;52.486;13.424;2023-03-01T14:54:41;22.17;;;3.67;;
8675;SDS011;4375;52.486;13.424;2023-03-01T14:57:18;21.67;;;4.50;;
8675;SDS011;4375;52.486;13.424;2023-03-01T14:59:46;16.43;;;2.77;;
8675;SDS011;4375;52.486;13.424;2023-03-01T15:02:17;19.60;;;3.80;;
8675;SDS011;4375;52.486;13.424;2023-03-01T15:05:05;19.83;;;4.23;;
8675;SDS011;4375;52.486;13.424;2023-03-01T15:07:33;18.93;;;3.93;;
8675;SDS011;4375;52.486;13.424;2023-03-01T15:10:02;19.00;;;4.60;;
8675;SDS011;4375;52.486;13.424;2023-03-01T15:15:18;18.93;;;4.23;;
8675;SDS011;4375;52.486;13.424;2023-03-01T15:18:11;14.73;;;2.60;;
8675;SDS011;4375;52.486;13.424;2023-03-01T15:20:44;17.30;;;4.17;;
8675;SDS011;4375;52.486;13.424;2023-03-01T15:23:18;20.67;;;4.60;;
8675;SDS011;4375;52.486;13.424;2023-03-01T15:25:52;17.17;;;3.80;;
8675;SDS011;4375;52.486;13.424;2023-03-01T15:28:26;16.77;;;3.20;;
8675;SDS011;4375;52.486;13.424;2023-03-01T15:31:17;18.33;;;3.83;;
8675;SDS011;4375;52.486;13.424;2023-03-01T15:33:50;21.00;;;4.97;;
8675;SDS011;4375;52.486;13.424;2023-03-01T15:36:30;22.00;;;5.60;;
8675;SDS011;4375;52.486;13.424;2023-03-01T15:38:56;23.30;;;5.30;;
8675;SDS011;4375;52.486;13.424;2023-03-01T15:43:56;21.03;;;5.20;;
8675;SDS011;4375;52.486;13.424;2023-03-01T15:46:32;24.27;;;6.33;;
8675;SDS011;4375;52.486;13.424;2023-03-01T15:49:03;25.87;;;5.67;;
8675;SDS011;4375;52.486;13.424;2023-03-01T15:51:51;23.40;;;6.70;;
8675;SDS011;4375;52.486;13.424;2023-03-01T15:54:20;23.40;;;6.80;;
8675;SDS011;4375;52.486;13.424;2023-03-01T15:56:48;21.00;;;5.30;;
8675;SDS011;4375;52.486;13.424;2023-03-01T15:59:15;20.30;;;5.20;;
8675;SDS011;4375;52.486;13.424;2023-03-01T16:01:41;27.47;;;7.80;;
8675;SDS011;4375;52.486;13.424;2023-03-01T16:04:11;20.17;;;5.20;;
8675;SDS011;4375;52.486;13.424;2023-03-01T16:06:45;24.00;;;7.43;;
8675;SDS011;4375;52.486;13.424;2023-03-01T16:09:23;23.77;;;5.07;;
8675;SDS011;4375;52.486;13.424;2023-03-01T16:11:50;20.93;;;5.37;;
8675;SDS011;4375;52.486;13.424;2023-03-01T16:14:17;22.17;;;4.73;;
8675;SDS011;4375;52.486;13.424;2023-03-01T16:16:43;18.50;;;5.47;;
8675;SDS011;4375;52.486;13.424;2023-03-01T16:19:09;18.10;;;4.57;;
8675;SDS011;4375;52.486;13.424;2023-03-01T16:21:36;20.13;;;4.10;;
8675;SDS011;4375;52.486;13.424;2023-03-01T16:24:02;18.00;;;3.63;;
8675;SDS011;4375;52.486;13.424;2023-03-01T16:26:28;19.90;;;5.03;;
8675;SDS011;4375;52.486;13.424;2023-03-01T16:28:55;17.93;;;4.17;;
8675;SDS011;4375;52.486;13.424;2023-03-01T16:31:22;19.50;;;4.70;;
8675;SDS011;4375;52.486;13.424;2023-03-01T16:33:49;23.67;;;6.20;;
8675;SDS011;4375;52.486;13.424;2023-03-01T16:36:17;27.40;;;7.27;;
8675;SDS011;4375;52.486;13.424;2023-03-01T16:38:44;35.77;;;10.50;;
8675;SDS011;4375;52.486;13.424;2023-03-01T16:41:13;30.50;;;10.10;;
8675;SDS011;4375;52.486;13.424;2023-03-01T16:43:41;31.30;;;9.43;;
8675;SDS011;4375;52.486;13.424;2023-03-01T16:46:11;37.07;;;12.40;;
8675;SDS011;4375;52.486;13.424;2023-03-01T16:48:41;30.60;;;10.00;;
8675;SDS011;4375;52.486;13.424;2023-03-01T16:51:07;28.43;;;9.17;;
8675;SDS011;4375;52.486;13.424;2023-03-01T16:53:34;31.70;;;9.87;;
8675;SDS011;4375;52.486;13.424;2023-03-01T16:56:01;30.30;;;9.17;;
8675;SDS011;4375;52.486;13.424;2023-03-01T16:58:28;41.03;;;13.23;;
8675;SDS011;4375;52.486;13.424;2023-03-01T17:00:54;35.70;;;11.07;;
8675;SDS011;4375;52.486;13.424;2023-03-01T17:03:23;41.57;;;11.13;;
8675;SDS011;4375;52.486;13.424;2023-03-01T17:05:49;40.80;;;13.10;;
8675;SDS011;4375;52.486;13.424;2023-03-01T17:08:15;38.23;;;12.57;;
8675;SDS011;4375;52.486;13.424;2023-03-01T17:10:41;34.67;;;12.93;;
8675;SDS011;4375;52.486;13.424;2023-03-01T17:13:08;37.80;;;13.20;;
8675;SDS011;4375;52.486;13.424;2023-03-01T17:15:37;38.80;;;13.63;;
8675;SDS011;4375;52.486;13.424;2023-03-01T17:18:04;37.10;;;12.80;;
8675;SDS011;4375;52.486;13.424;2023-03-01T17:20:30;36.70;;;12.97;;
8675;SDS011;4375;52.486;13.424;2023-03-01T17:22:56;41.83;;;13.73;;
8675;SDS011;4375;52.486;13.424;2023-03-01T17:25:22;37.67;;;13.20;;
8675;SDS011;4375;52.486;13.424;2023-03-01T17:27:48;38.57;;;13.83;;
8675;SDS011;4375;52.486;13.424;2023-03-01T17:30:14;39.33;;;12.97;;
8675;SDS011;4375;52.486;13.424;2023-03-01T17:32:40;39.40;;;12.97;;
8675;SDS011;4375;52.486;13.424;2023-03-01T17:35:06;34.27;;;13.17;;
8675;SDS011;4375;52.486;13.424;2023-03-01T17:37:32;41.30;;;14.40;;